Time;durP1;ratioP1;P1;durP2;ratioP2;P2;SDS_P1;SDS_P2;PMS_P1;PMS_P2;Temp;Humidity;BMP_temperature;BMP_pressure;BME280_temperature;BME280_humidity;BME280_pressure;Samples;Min_cycle;Max_cycle;Signal;HPM_P1;HPM_P2
2023/07/13 00:00:17;;;;;;;;;;;;;;;;;;2031657;29;19911;-72
2023/07/13 00:01:38;;;;;;;;;;;;;;;;;;2034123;29;19911;-72
2023/07/13 00:02:59;;;;;;;;;;;;;;;;;;2034337;29;19911;-72
2023/07/13 00:04:20;;;;;;;;;;;;;;;;;;2043993;28;19922;-72
2023/07/13 00:05:41;;;;;;;;;;;;;;;;;;2043068;28;19907;-72
2023/07/13 00:07:02;;;;;;;;;;;;;;;;;;2036794;28;19918;-72
2023/07/13 00:08:23;;;;;;;;;;;;;;;;;;2042868;28;20425;-72
2023/07/13 00:09:43;;;;;;;;;;;;;;;;;;2049441;29;19910;-72
2023/07/13 00:11:04;;;;;;;;;;;;;;;;;;2037437;29;21612;-72
2023/07/13 00:12:25;;;;;;;;;;;;;;;;;;2037855;29;20350;-72
2023/07/13 00:13:46;;;;;;;;;;;;;;;;;;2041227;29;19907;-72
2023/07/13 00:15:07;;;;;;;;;;;;;;;;;;2048653;28;19907;-74
2023/07/13 00:16:27;;;;;;;;;;;;;;;;;;2036648;29;19970;-72
2023/07/13 00:17:48;;;;;;;;;;;;;;;;;;2043064;29;19910;-72
2023/07/13 00:19:09;;;;;;;;;;;;;;;;;;2041142;28;19918;-72
2023/07/13 00:20:29;;;;;;;;;;;;;;;;;;2040818;28;19914;-72
2023/07/13 00:21:50;;;;;;;;;;;;;;;;;;2034883;28;19910;-72
2023/07/13 00:23:11;;;;;;;;;;;;;;;;;;2032508;29;19962;-72
2023/07/13 00:24:32;;;;;;;;;;;;;;;;;;2041848;28;19914;-72
2023/07/13 00:25:52;;;;;;;;;;;;;;;;;;2035972;28;19958;-72
2023/07/13 00:27:13;;;;;;;;;;;;;;;;;;2033144;29;20492;-72
2023/07/13 00:28:34;;;;;;;;;;;;;;;;;;2036514;29;20326;-72
2023/07/13 00:29:55;;;;;;;;;;;;;;;;;;2038876;29;19907;-72
2023/07/13 00:31:16;;;;;;;;;;;;;;;;;;2045136;29;19934;-71
2023/07/13 00:32:37;;;;;;;;;;;;;;;;;;2044107;29;19906;-72
2023/07/13 00:34:00;;;;;;;;;;;;;;;;;;2036507;29;19915;-71
2023/07/13 00:35:20;;;;;;;;;;;;;;;;;;2044398;29;19917;-72
2023/07/13 00:36:41;;;;;;;;;;;;;;;;;;2040216;29;19926;-72
2023/07/13 00:38:02;;;;;;;;;;;;;;;;;;2040104;29;19915;-72
2023/07/13 00:39:23;;;;;;;;;;;;;;;;;;2038346;29;19919;-72
2023/07/13 00:40:44;;;;;;;;;;;;;;;;;;2038040;29;20063;-72
2023/07/13 00:42:05;;;;;;;;;;;;;;;;;;2038636;29;19906;-72
2023/07/13 00:43:25;;;;;;;;;;;;;;;;;;2041590;28;20587;-72
2023/07/13 00:44:46;;;;;;;;;;;;;;;;;;2043046;29;19982;-72
2023/07/13 00:46:07;;;;;;;;;;;;;;;;;;2028878;29;19915;-73
2023/07/13 00:47:27;;;;;;;;;;;;;;;;;;2046783;28;19914;-72
2023/07/13 00:48:48;;;;;;;;;;;;;;;;;;2043926;29;19910;-72
2023/07/13 00:50:09;;;;;;;;;;;;;;;;;;2043282;28;19918;-72
2023/07/13 00:51:30;;;;;;;;;;;;;;;;;;2039109;29;19915;-72
2023/07/13 00:52:50;;;;;;;;;;;;;;;;;;2039743;29;19965;-72
2023/07/13 00:54:11;;;;;;;;;;;;;;;;;;2039674;29;19935;-72
2023/07/13 00:55:32;;;;;;;;;;;;;;;;;;2041172;29;19914;-72
2023/07/13 00:56:53;;;;;;;;;;;;;;;;;;2034248;29;19923;-72
2023/07/13 00:58:13;;;;;;;;;;;;;;;;;;2033640;29;19915;-72
2023/07/13 00:59:34;;;;;;;;;;;;;;;;;;2038244;29;19911;-72
2023/07/13 01:00:55;;;;;;;;;;;;;;;;;;2037051;29;20374;-75
2023/07/13 01:02:16;;;;;;;;;;;;;;;;;;2039009;29;19915;-75
2023/07/13 01:03:38;;;;;;;;;;;;;;;;;;2066933;23;20384;-70
2023/07/13 01:04:58;;;;;;;;;;;;;;;;;;2057057;28;19994;-70
2023/07/13 01:06:19;;;;;;;;;;;;;;;;;;2056400;28;19918;-70
2023/07/13 01:07:40;;;;;;;;;;;;;;;;;;2063085;28;19961;-70
2023/07/13 01:09:00;;;;;;;;;;;;;;;;;;2048266;28;19933;-70
2023/07/13 01:10:21;;;;;;;;;;;;;;;;;;2047801;29;19958;-69
2023/07/13 01:11:42;;;;;;;;;;;;;;;;;;2053754;28;19953;-70
2023/07/13 01:13:03;;;;;;;;;;;;;;;;;;2063447;28;20199;-70
2023/07/13 01:14:24;;;;;;;;;;;;;;;;;;2063803;28;19913;-69
2023/07/13 01:15:44;;;;;;;;;;;;;;;;;;2053425;28;20365;-70
2023/07/13 01:17:05;;;;;;;;;;;;;;;;;;2061160;28;19914;-69
2023/07/13 01:18:26;;;;;;;;;;;;;;;;;;2051407;28;20091;-70
2023/07/13 01:19:47;;;;;;;;;;;;;;;;;;2055854;28;19906;-69
2023/07/13 01:21:07;;;;;;;;;;;;;;;;;;2061950;28;19909;-70
2023/07/13 01:22:28;;;;;;;;;;;;;;;;;;2054249;28;20393;-69
2023/07/13 01:23:49;;;;;;;;;;;;;;;;;;2054709;28;19993;-70
2023/07/13 01:25:09;;;;;;;;;;;;;;;;;;2063197;28;20276;-70
2023/07/13 01:26:30;;;;;;;;;;;;;;;;;;2058649;28;19941;-69
2023/07/13 01:27:51;;;;;;;;;;;;;;;;;;2061604;28;20259;-70
2023/07/13 01:29:11;;;;;;;;;;;;;;;;;;2065528;28;19918;-70
2023/07/13 01:30:32;;;;;;;;;;;;;;;;;;2058566;28;20245;-70
2023/07/13 01:31:53;;;;;;;;;;;;;;;;;;2054652;28;19911;-70
2023/07/13 01:33:14;;;;;;;;;;;;;;;;;;2055433;28;20202;-69
2023/07/13 01:34:34;;;;;;;;;;;;;;;;;;2058159;28;19910;-70
2023/07/13 01:35:57;;;;;;;;;;;;;;;;;;2057785;28;19992;-70
2023/07/13 01:37:18;;;;;;;;;;;;;;;;;;2063480;28;19917;-70
2023/07/13 01:38:38;;;;;;;;;;;;;;;;;;2063826;28;19910;-69
2023/07/13 01:40:00;;;;;;;;;;;;;;;;;;2064246;28;20344;-69
2023/07/13 01:41:20;;;;;;;;;;;;;;;;;;2062671;28;19905;-70
2023/07/13 01:42:41;;;;;;;;;;;;;;;;;;2062694;28;19912;-69
2023/07/13 01:44:02;;;;;;;;;;;;;;;;;;2056686;28;19910;-69
2023/07/13 01:45:23;;;;;;;;;;;;;;;;;;2061177;28;19906;-70
2023/07/13 01:46:43;;;;;;;;;;;;;;;;;;2051603;28;19910;-69
2023/07/13 01:48:06;;;;;;;;;;;;;;;;;;2060569;28;20269;-71
2023/07/13 01:49:27;;;;;;;;;;;;;;;;;;2056993;28;19906;-70
2023/07/13 01:50:47;;;;;;;;;;;;;;;;;;2062337;28;19913;-70
2023/07/13 01:52:08;;;;;;;;;;;;;;;;;;2059845;28;20384;-70
2023/07/13 01:53:29;;;;;;;;;;;;;;;;;;2056280;28;19909;-70
2023/07/13 01:54:50;;;;;;;;;;;;;;;;;;2054784;28;19958;-70
2023/07/13 01:56:10;;;;;;;;;;;;;;;;;;2045729;28;20308;-70
2023/07/13 01:57:31;;;;;;;;;;;;;;;;;;2041222;28;19937;-70
2023/07/13 01:58:52;;;;;;;;;;;;;;;;;;2055219;28;20427;-70
2023/07/13 02:00:13;;;;;;;;;;;;;;;;;;2056313;28;19922;-70
2023/07/13 02:01:34;;;;;;;;;;;;;;;;;;2041650;28;21504;-70
2023/07/13 02:02:54;;;;;;;;;;;;;;;;;;2050054;28;19914;-70
2023/07/13 02:04:15;;;;;;;;;;;;;;;;;;2050352;28;19924;-70
2023/07/13 02:05:36;;;;;;;;;;;;;;;;;;2048127;28;19943;-70
2023/07/13 02:06:56;;;;;;;;;;;;;;;;;;2048342;28;20019;-70
2023/07/13 02:08:17;;;;;;;;;;;;;;;;;;2048701;28;20548;-70
2023/07/13 02:09:38;;;;;;;;;;;;;;;;;;2041964;28;19918;-70
2023/07/13 02:10:59;;;;;;;;;;;;;;;;;;2048154;28;19918;-70
2023/07/13 02:12:20;;;;;;;;;;;;;;;;;;2057395;28;19909;-70
2023/07/13 02:13:40;;;;;;;;;;;;;;;;;;2053154;28;21578;-70
2023/07/13 02:15:01;;;;;;;;;;;;;;;;;;2062973;28;19909;-70
2023/07/13 02:16:22;;;;;;;;;;;;;;;;;;2059783;28;20357;-70
2023/07/13 02:17:43;;;;;;;;;;;;;;;;;;2058141;28;19906;-70
2023/07/13 02:19:03;;;;;;;;;;;;;;;;;;2056677;28;20374;-70
2023/07/13 02:20:24;;;;;;;;;;;;;;;;;;2056948;28;19954;-70
2023/07/13 02:21:45;;;;;;;;;;;;;;;;;;2060549;28;20353;-71
2023/07/13 02:23:05;;;;;;;;;;;;;;;;;;2059540;28;20017;-71
2023/07/13 02:24:27;;;;;;;;;;;;;;;;;;2064999;28;20276;-72
2023/07/13 02:25:48;;;;;;;;;;;;;;;;;;2064978;28;19913;-72
2023/07/13 02:27:08;;;;;;;;;;;;;;;;;;2062903;28;19913;-72
2023/07/13 02:28:29;;;;;;;;;;;;;;;;;;2063006;28;19905;-72
2023/07/13 02:29:51;;;;;;;;;;;;;;;;;;2065501;28;19948;-71
2023/07/13 02:31:11;;;;;;;;;;;;;;;;;;2054604;28;19914;-71
2023/07/13 02:32:33;;;;;;;;;;;;;;;;;;2059052;28;19913;-71
2023/07/13 02:33:54;;;;;;;;;;;;;;;;;;2053507;28;19906;-71
2023/07/13 02:35:15;;;;;;;;;;;;;;;;;;2054475;28;19913;-71
2023/07/13 02:36:35;;;;;;;;;;;;;;;;;;2057102;28;19995;-71
2023/07/13 02:37:56;;;;;;;;;;;;;;;;;;2055888;28;20628;-71
2023/07/13 02:39:17;;;;;;;;;;;;;;;;;;2061801;28;19910;-72
2023/07/13 02:40:38;;;;;;;;;;;;;;;;;;2049594;28;20325;-71
2023/07/13 02:41:59;;;;;;;;;;;;;;;;;;2054132;28;20281;-71
2023/07/13 02:43:19;;;;;;;;;;;;;;;;;;2054149;28;20053;-71
2023/07/13 02:44:40;;;;;;;;;;;;;;;;;;2055146;28;19910;-71
2023/07/13 02:46:06;;;;;;;;;;;;;;;;;;2057511;28;20373;-67
2023/07/13 02:47:27;;;;;;;;;;;;;;;;;;2056097;28;20004;-67
2023/07/13 02:48:48;;;;;;;;;;;;;;;;;;2055939;28;19922;-67
2023/07/13 02:50:08;;;;;;;;;;;;;;;;;;2056567;28;19918;-66
2023/07/13 02:51:29;;;;;;;;;;;;;;;;;;2062712;28;19910;-66
2023/07/13 02:52:50;;;;;;;;;;;;;;;;;;2059193;28;19964;-67
2023/07/13 02:54:11;;;;;;;;;;;;;;;;;;2062367;28;20312;-67
2023/07/13 02:55:32;;;;;;;;;;;;;;;;;;2063644;28;20380;-67
2023/07/13 02:56:53;;;;;;;;;;;;;;;;;;2051439;28;19919;-67
2023/07/13 02:58:16;;;;;;;;;;;;;;;;;;2057645;28;20517;-67
2023/07/13 02:59:37;;;;;;;;;;;;;;;;;;2064074;28;19910;-67
2023/07/13 03:00:58;;;;;;;;;;;;;;;;;;2056355;28;19906;-67
2023/07/13 03:02:19;;;;;;;;;;;;;;;;;;2061826;28;20055;-66
2023/07/13 03:03:39;;;;;;;;;;;;;;;;;;2055116;28;19997;-67
2023/07/13 03:05:00;;;;;;;;;;;;;;;;;;2061736;28;19918;-66
2023/07/13 03:06:21;;;;;;;;;;;;;;;;;;2055869;28;19906;-67
2023/07/13 03:07:42;;;;;;;;;;;;;;;;;;2061298;28;19914;-67
2023/07/13 03:09:03;;;;;;;;;;;;;;;;;;2050726;28;20372;-67
2023/07/13 03:10:24;;;;;;;;;;;;;;;;;;2050933;28;20421;-68
2023/07/13 03:11:45;;;;;;;;;;;;;;;;;;2055522;28;20162;-67
2023/07/13 03:13:06;;;;;;;;;;;;;;;;;;2061540;28;19917;-67
2023/07/13 03:14:26;;;;;;;;;;;;;;;;;;2065005;28;19906;-67
2023/07/13 03:15:47;;;;;;;;;;;;;;;;;;2062465;28;19905;-67
2023/07/13 03:17:08;;;;;;;;;;;;;;;;;;2060373;28;19932;-67
2023/07/13 03:18:29;;;;;;;;;;;;;;;;;;2061553;28;19937;-67
2023/07/13 03:19:50;;;;;;;;;;;;;;;;;;2051730;28;19957;-67
2023/07/13 03:21:11;;;;;;;;;;;;;;;;;;2045941;28;19913;-66
2023/07/13 03:22:32;;;;;;;;;;;;;;;;;;2057751;28;19932;-67
2023/07/13 03:23:52;;;;;;;;;;;;;;;;;;2057534;28;19910;-66
2023/07/13 03:25:13;;;;;;;;;;;;;;;;;;2058958;28;19906;-67
2023/07/13 03:26:34;;;;;;;;;;;;;;;;;;2057093;28;19906;-66
2023/07/13 03:27:55;;;;;;;;;;;;;;;;;;2061238;28;19918;-67
2023/07/13 03:29:15;;;;;;;;;;;;;;;;;;2064325;28;19914;-67
2023/07/13 03:30:36;;;;;;;;;;;;;;;;;;2052500;28;20740;-67
2023/07/13 03:31:57;;;;;;;;;;;;;;;;;;2050748;28;20832;-67
2023/07/13 03:33:17;;;;;;;;;;;;;;;;;;2054854;28;19905;-67
2023/07/13 03:34:38;;;;;;;;;;;;;;;;;;2060733;28;19906;-67
2023/07/13 03:35:59;;;;;;;;;;;;;;;;;;2059344;28;19906;-67
2023/07/13 03:37:20;;;;;;;;;;;;;;;;;;2054651;28;19925;-67
2023/07/13 03:38:41;;;;;;;;;;;;;;;;;;2062277;28;19917;-67
2023/07/13 03:40:02;;;;;;;;;;;;;;;;;;2060759;28;20250;-67
2023/07/13 03:41:22;;;;;;;;;;;;;;;;;;2054674;28;19913;-67
2023/07/13 03:42:43;;;;;;;;;;;;;;;;;;2060996;28;20250;-67
2023/07/13 03:44:04;;;;;;;;;;;;;;;;;;2048021;28;19906;-67
2023/07/13 03:45:24;;;;;;;;;;;;;;;;;;2055689;28;20411;-67
2023/07/13 03:46:45;;;;;;;;;;;;;;;;;;2056131;28;21770;-67
2023/07/13 03:48:06;;;;;;;;;;;;;;;;;;2054898;28;19926;-67
2023/07/13 03:49:27;;;;;;;;;;;;;;;;;;2057010;28;19917;-67
2023/07/13 03:50:49;;;;;;;;;;;;;;;;;;2057389;28;19910;-68
2023/07/13 03:52:09;;;;;;;;;;;;;;;;;;2058557;28;19977;-67
2023/07/13 03:53:30;;;;;;;;;;;;;;;;;;2056113;28;19980;-67
2023/07/13 03:54:51;;;;;;;;;;;;;;;;;;2059951;28;19917;-67
2023/07/13 03:56:13;;;;;;;;;;;;;;;;;;2053997;28;19961;-67
2023/07/13 03:57:34;;;;;;;;;;;;;;;;;;2054577;28;19914;-67
2023/07/13 03:58:55;;;;;;;;;;;;;;;;;;2057010;28;20380;-67
2023/07/13 04:00:16;;;;;;;;;;;;;;;;;;2063976;28;19905;-67
2023/07/13 04:01:36;;;;;;;;;;;;;;;;;;2057564;28;19914;-68
2023/07/13 04:02:57;;;;;;;;;;;;;;;;;;2061820;28;19905;-67
2023/07/13 04:04:18;;;;;;;;;;;;;;;;;;2047680;28;19937;-67
2023/07/13 04:05:40;;;;;;;;;;;;;;;;;;2053811;28;19913;-67
2023/07/13 04:07:01;;;;;;;;;;;;;;;;;;2056820;28;19936;-68
2023/07/13 04:08:21;;;;;;;;;;;;;;;;;;2060454;28;19922;-67
2023/07/13 04:09:42;;;;;;;;;;;;;;;;;;2063599;28;20328;-67
2023/07/13 04:11:03;;;;;;;;;;;;;;;;;;2064331;28;20321;-68
2023/07/13 04:12:24;;;;;;;;;;;;;;;;;;2061618;28;19906;-67
2023/07/13 04:13:44;;;;;;;;;;;;;;;;;;2063396;28;19910;-67
2023/07/13 04:15:05;;;;;;;;;;;;;;;;;;2049982;28;20227;-67
2023/07/13 04:16:26;;;;;;;;;;;;;;;;;;2064288;28;19921;-67
2023/07/13 04:17:47;;;;;;;;;;;;;;;;;;2060487;28;19914;-67
2023/07/13 04:19:07;;;;;;;;;;;;;;;;;;2059099;28;20215;-67
2023/07/13 04:20:28;;;;;;;;;;;;;;;;;;2048161;29;20372;-67
2023/07/13 04:21:49;;;;;;;;;;;;;;;;;;2056252;28;19909;-67
2023/07/13 04:23:10;;;;;;;;;;;;;;;;;;2059687;28;19905;-67
2023/07/13 04:24:30;;;;;;;;;;;;;;;;;;2056477;28;19910;-67
2023/07/13 04:25:52;;;;;;;;;;;;;;;;;;2056285;28;19917;-67
2023/07/13 04:27:13;;;;;;;;;;;;;;;;;;2059303;28;19906;-67
2023/07/13 04:28:34;;;;;;;;;;;;;;;;;;2058795;28;20332;-67
2023/07/13 04:29:54;;;;;;;;;;;;;;;;;;2057125;28;19910;-67
2023/07/13 04:31:15;;;;;;;;;;;;;;;;;;2058421;28;20527;-67
2023/07/13 04:32:36;;;;;;;;;;;;;;;;;;2059224;28;19910;-67
2023/07/13 04:33:56;;;;;;;;;;;;;;;;;;2052917;28;19918;-67
2023/07/13 04:35:17;;;;;;;;;;;;;;;;;;2054636;28;19918;-67
2023/07/13 04:36:38;;;;;;;;;;;;;;;;;;2058562;28;20364;-67
2023/07/13 04:37:58;;;;;;;;;;;;;;;;;;2061822;28;19925;-67
2023/07/13 04:39:20;;;;;;;;;;;;;;;;;;2057651;28;20295;-67
2023/07/13 04:40:41;;;;;;;;;;;;;;;;;;2064256;28;19910;-67
2023/07/13 04:42:01;;;;;;;;;;;;;;;;;;2060114;28;19916;-67
2023/07/13 04:43:22;;;;;;;;;;;;;;;;;;2059815;28;19906;-67
2023/07/13 04:44:43;;;;;;;;;;;;;;;;;;2063896;28;19960;-68
2023/07/13 04:46:03;;;;;;;;;;;;;;;;;;2052496;28;20043;-68
2023/07/13 04:47:24;;;;;;;;;;;;;;;;;;2058529;28;20284;-67
2023/07/13 04:48:45;;;;;;;;;;;;;;;;;;2058933;28;19910;-67
2023/07/13 04:50:05;;;;;;;;;;;;;;;;;;2064267;28;19909;-67
2023/07/13 04:51:26;;;;;;;;;;;;;;;;;;2057976;28;19914;-68
2023/07/13 04:52:47;;;;;;;;;;;;;;;;;;2060539;28;20269;-67
2023/07/13 04:54:08;;;;;;;;;;;;;;;;;;2055857;28;19928;-67
2023/07/13 04:55:30;;;;;;;;;;;;;;;;;;2057992;28;19910;-68
2023/07/13 04:56:51;;;;;;;;;;;;;;;;;;2062218;28;19921;-67
2023/07/13 04:58:11;;;;;;;;;;;;;;;;;;2052520;28;20276;-67
2023/07/13 04:59:32;;;;;;;;;;;;;;;;;;2050286;28;19918;-68
2023/07/13 05:00:53;;;;;;;;;;;;;;;;;;2060134;28;20403;-67
2023/07/13 05:02:13;;;;;;;;;;;;;;;;;;2058793;28;19937;-67
2023/07/13 05:03:34;;;;;;;;;;;;;;;;;;2059592;28;19914;-68
2023/07/13 05:04:55;;;;;;;;;;;;;;;;;;2062083;28;20550;-68
2023/07/13 05:06:16;;;;;;;;;;;;;;;;;;2059549;28;20091;-67
2023/07/13 05:07:36;;;;;;;;;;;;;;;;;;2062915;28;19917;-67
2023/07/13 05:08:57;;;;;;;;;;;;;;;;;;2060957;28;19917;-67
2023/07/13 05:10:18;;;;;;;;;;;;;;;;;;2056561;28;20316;-67
2023/07/13 05:11:39;;;;;;;;;;;;;;;;;;2051410;28;19922;-67
2023/07/13 05:13:00;;;;;;;;;;;;;;;;;;2060993;28;20377;-67
2023/07/13 05:14:20;;;;;;;;;;;;;;;;;;2058986;28;19917;-67
2023/07/13 05:15:41;;;;;;;;;;;;;;;;;;2067654;28;19909;-67
2023/07/13 05:17:02;;;;;;;;;;;;;;;;;;2052599;28;19941;-67
2023/07/13 05:18:22;;;;;;;;;;;;;;;;;;2049478;28;19986;-68
2023/07/13 05:19:43;;;;;;;;;;;;;;;;;;2049481;28;19914;-67
2023/07/13 05:21:04;;;;;;;;;;;;;;;;;;2058519;28;19976;-68
2023/07/13 05:22:25;;;;;;;;;;;;;;;;;;2064574;28;19953;-67
2023/07/13 05:23:45;;;;;;;;;;;;;;;;;;2060372;28;19917;-68
2023/07/13 05:25:06;;;;;;;;;;;;;;;;;;2061657;28;20281;-68
2023/07/13 05:26:27;;;;;;;;;;;;;;;;;;2061513;28;19917;-68
2023/07/13 05:27:48;;;;;;;;;;;;;;;;;;2059567;28;19926;-67
2023/07/13 05:29:08;;;;;;;;;;;;;;;;;;2051652;28;19921;-67
2023/07/13 05:30:29;;;;;;;;;;;;;;;;;;2060048;28;20009;-67
2023/07/13 05:31:50;;;;;;;;;;;;;;;;;;2058843;28;19910;-68
2023/07/13 05:33:11;;;;;;;;;;;;;;;;;;2054268;28;19917;-67
2023/07/13 05:34:32;;;;;;;;;;;;;;;;;;2057650;28;19918;-67
2023/07/13 05:35:52;;;;;;;;;;;;;;;;;;2061616;28;19909;-67
2023/07/13 05:37:13;;;;;;;;;;;;;;;;;;2060662;28;19996;-67
2023/07/13 05:38:34;;;;;;;;;;;;;;;;;;2059047;28;20262;-67
2023/07/13 05:39:54;;;;;;;;;;;;;;;;;;2059823;28;19929;-67
2023/07/13 05:41:15;;;;;;;;;;;;;;;;;;2058531;28;20292;-67
2023/07/13 05:42:36;;;;;;;;;;;;;;;;;;2061687;28;19914;-68
2023/07/13 05:43:57;;;;;;;;;;;;;;;;;;2063004;28;19914;-68
2023/07/13 05:45:17;;;;;;;;;;;;;;;;;;2061484;28;20299;-67
2023/07/13 05:46:38;;;;;;;;;;;;;;;;;;2060897;28;20407;-68
2023/07/13 05:47:59;;;;;;;;;;;;;;;;;;2061457;28;19914;-68
2023/07/13 05:49:19;;;;;;;;;;;;;;;;;;2066712;28;20356;-68
2023/07/13 05:50:40;;;;;;;;;;;;;;;;;;2065659;28;19917;-68
2023/07/13 05:52:01;;;;;;;;;;;;;;;;;;2064117;28;20353;-68
2023/07/13 05:53:21;;;;;;;;;;;;;;;;;;2053204;28;19906;-68
2023/07/13 05:54:42;;;;;;;;;;;;;;;;;;2062232;28;19906;-68
2023/07/13 05:56:03;;;;;;;;;;;;;;;;;;2051973;28;19910;-68
2023/07/13 05:57:24;;;;;;;;;;;;;;;;;;2057169;28;20317;-68
2023/07/13 05:58:44;;;;;;;;;;;;;;;;;;2062946;28;19914;-67
2023/07/13 06:00:05;;;;;;;;;;;;;;;;;;2064675;28;19914;-68
2023/07/13 06:01:26;;;;;;;;;;;;;;;;;;2061148;28;19913;-68
2023/07/13 06:02:46;;;;;;;;;;;;;;;;;;2058007;28;20001;-68
2023/07/13 06:04:07;;;;;;;;;;;;;;;;;;2064724;28;20289;-67
2023/07/13 06:05:28;;;;;;;;;;;;;;;;;;2064940;28;19912;-68
2023/07/13 06:06:49;;;;;;;;;;;;;;;;;;2061538;28;20365;-68
2023/07/13 06:08:10;;;;;;;;;;;;;;;;;;2058128;28;19941;-68
2023/07/13 06:09:30;;;;;;;;;;;;;;;;;;2057789;28;19929;-68
2023/07/13 06:10:51;;;;;;;;;;;;;;;;;;2055254;28;19910;-68
2023/07/13 06:12:12;;;;;;;;;;;;;;;;;;2060565;28;19906;-68
2023/07/13 06:13:33;;;;;;;;;;;;;;;;;;2060722;28;20360;-68
2023/07/13 06:14:54;;;;;;;;;;;;;;;;;;2056288;28;19990;-68
2023/07/13 06:16:14;;;;;;;;;;;;;;;;;;2062718;28;19910;-68
2023/07/13 06:17:35;;;;;;;;;;;;;;;;;;2064130;28;19906;-68
2023/07/13 06:18:56;;;;;;;;;;;;;;;;;;2055904;28;19922;-68
2023/07/13 06:20:17;;;;;;;;;;;;;;;;;;2049411;28;19930;-68
2023/07/13 06:21:37;;;;;;;;;;;;;;;;;;2048897;28;20014;-69
2023/07/13 06:22:58;;;;;;;;;;;;;;;;;;2052681;28;20329;-69
2023/07/13 06:24:19;;;;;;;;;;;;;;;;;;2062856;28;20012;-69
2023/07/13 06:25:40;;;;;;;;;;;;;;;;;;2064724;28;19909;-69
2023/07/13 06:27:00;;;;;;;;;;;;;;;;;;2061884;28;19910;-69
2023/07/13 06:28:21;;;;;;;;;;;;;;;;;;2063113;28;19964;-68
2023/07/13 06:29:44;;;;;;;;;;;;;;;;;;2063241;28;19905;-69
2023/07/13 06:31:05;;;;;;;;;;;;;;;;;;2065687;28;19989;-68
2023/07/13 06:32:26;;;;;;;;;;;;;;;;;;2062104;28;19909;-69
2023/07/13 06:33:47;;;;;;;;;;;;;;;;;;2063213;28;19913;-69
2023/07/13 06:35:07;;;;;;;;;;;;;;;;;;2064861;28;19914;-68
2023/07/13 06:36:28;;;;;;;;;;;;;;;;;;2063476;28;19937;-69
2023/07/13 06:37:49;;;;;;;;;;;;;;;;;;2060373;28;19906;-69
2023/07/13 06:39:10;;;;;;;;;;;;;;;;;;2064142;28;19909;-68
2023/07/13 06:40:31;;;;;;;;;;;;;;;;;;2066994;28;19906;-68
2023/07/13 06:41:51;;;;;;;;;;;;;;;;;;2061881;28;19905;-69
2023/07/13 06:43:12;;;;;;;;;;;;;;;;;;2061176;28;19906;-69
2023/07/13 06:44:33;;;;;;;;;;;;;;;;;;2063667;28;19958;-71
2023/07/13 06:45:53;;;;;;;;;;;;;;;;;;2054273;28;19906;-69
2023/07/13 06:47:14;;;;;;;;;;;;;;;;;;2061983;28;19956;-69
2023/07/13 06:48:35;;;;;;;;;;;;;;;;;;2056089;28;19918;-69
2023/07/13 06:49:56;;;;;;;;;;;;;;;;;;2056811;28;19965;-69
2023/07/13 06:51:17;;;;;;;;;;;;;;;;;;2056726;28;19926;-70
2023/07/13 06:52:37;;;;;;;;;;;;;;;;;;2061303;28;19916;-69
2023/07/13 06:53:58;;;;;;;;;;;;;;;;;;2064689;28;19948;-68
2023/07/13 06:55:19;;;;;;;;;;;;;;;;;;2065391;28;19909;-69
2023/07/13 06:56:39;;;;;;;;;;;;;;;;;;2052518;28;19934;-69
2023/07/13 06:58:00;;;;;;;;;;;;;;;;;;2061039;28;19906;-69
2023/07/13 06:59:21;;;;;;;;;;;;;;;;;;2063057;28;19916;-69
2023/07/13 07:00:42;;;;;;;;;;;;;;;;;;2064459;28;19928;-69
2023/07/13 07:02:02;;;;;;;;;;;;;;;;;;2057975;28;19916;-69
2023/07/13 07:03:23;;;;;;;;;;;;;;;;;;2060033;28;19929;-69
2023/07/13 07:04:44;;;;;;;;;;;;;;;;;;2063744;28;19913;-69
2023/07/13 07:06:04;;;;;;;;;;;;;;;;;;2063727;28;19905;-69
2023/07/13 07:07:25;;;;;;;;;;;;;;;;;;2061898;28;19906;-69
2023/07/13 07:08:46;;;;;;;;;;;;;;;;;;2062248;28;19925;-69
2023/07/13 07:10:07;;;;;;;;;;;;;;;;;;2063893;28;20177;-69
2023/07/13 07:11:27;;;;;;;;;;;;;;;;;;2062391;28;19913;-69
2023/07/13 07:12:48;;;;;;;;;;;;;;;;;;2059109;28;19988;-69
2023/07/13 07:14:09;;;;;;;;;;;;;;;;;;2060608;28;19922;-68
2023/07/13 07:15:29;;;;;;;;;;;;;;;;;;2064036;28;19910;-68
2023/07/13 07:16:50;;;;;;;;;;;;;;;;;;2060349;28;19906;-68
2023/07/13 07:18:11;;;;;;;;;;;;;;;;;;2055857;28;20303;-69
2023/07/13 07:19:31;;;;;;;;;;;;;;;;;;2062512;28;20167;-68
2023/07/13 07:20:52;;;;;;;;;;;;;;;;;;2056908;28;19906;-69
2023/07/13 07:22:13;;;;;;;;;;;;;;;;;;2059311;28;19905;-68
2023/07/13 07:23:33;;;;;;;;;;;;;;;;;;2061339;28;20317;-68
2023/07/13 07:24:54;;;;;;;;;;;;;;;;;;2065163;28;19906;-69
2023/07/13 07:26:15;;;;;;;;;;;;;;;;;;2064389;28;20376;-69
2023/07/13 07:27:36;;;;;;;;;;;;;;;;;;2063664;28;19913;-69
2023/07/13 07:28:56;;;;;;;;;;;;;;;;;;2062689;28;19917;-69
2023/07/13 07:30:17;;;;;;;;;;;;;;;;;;2064605;28;19916;-69
2023/07/13 07:31:38;;;;;;;;;;;;;;;;;;2061874;28;19929;-69
2023/07/13 07:32:58;;;;;;;;;;;;;;;;;;2053772;28;19960;-69
2023/07/13 07:34:19;;;;;;;;;;;;;;;;;;2062410;28;20407;-69
2023/07/13 07:35:40;;;;;;;;;;;;;;;;;;2057580;28;19914;-69
2023/07/13 07:37:01;;;;;;;;;;;;;;;;;;2061502;28;19917;-69
2023/07/13 07:38:21;;;;;;;;;;;;;;;;;;2059243;28;20306;-69
2023/07/13 07:39:42;;;;;;;;;;;;;;;;;;2063136;28;19913;-69
2023/07/13 07:41:03;;;;;;;;;;;;;;;;;;2057416;28;19906;-68
2023/07/13 07:42:24;;;;;;;;;;;;;;;;;;2060130;28;19917;-69
2023/07/13 07:43:44;;;;;;;;;;;;;;;;;;2049750;28;20269;-69
2023/07/13 07:45:05;;;;;;;;;;;;;;;;;;2057531;28;19933;-69
2023/07/13 07:46:26;;;;;;;;;;;;;;;;;;2062653;28;19964;-69
2023/07/13 07:47:46;;;;;;;;;;;;;;;;;;2055407;28;19910;-69
2023/07/13 07:49:07;;;;;;;;;;;;;;;;;;2057918;28;19933;-68
2023/07/13 07:50:28;;;;;;;;;;;;;;;;;;2056096;28;20314;-69
2023/07/13 07:51:48;;;;;;;;;;;;;;;;;;2059775;28;20025;-69
2023/07/13 07:53:10;;;;;;;;;;;;;;;;;;2059825;28;19944;-69
2023/07/13 07:54:31;;;;;;;;;;;;;;;;;;2064296;28;19906;-69
2023/07/13 07:55:51;;;;;;;;;;;;;;;;;;2064309;28;20439;-69
2023/07/13 07:57:12;;;;;;;;;;;;;;;;;;2059614;28;19906;-69
2023/07/13 07:58:33;;;;;;;;;;;;;;;;;;2062502;28;19910;-69
2023/07/13 07:59:54;;;;;;;;;;;;;;;;;;2052945;28;19910;-68
2023/07/13 08:01:16;;;;;;;;;;;;;;;;;;2059822;28;19932;-68
2023/07/13 08:02:36;;;;;;;;;;;;;;;;;;2060558;28;19910;-68
2023/07/13 08:03:57;;;;;;;;;;;;;;;;;;2063126;28;19984;-69
2023/07/13 08:05:18;;;;;;;;;;;;;;;;;;2064392;28;19906;-69
2023/07/13 08:06:38;;;;;;;;;;;;;;;;;;2060885;28;19912;-69
2023/07/13 08:07:59;;;;;;;;;;;;;;;;;;2063604;28;19906;-70
2023/07/13 08:09:20;;;;;;;;;;;;;;;;;;2068397;28;20010;-68
2023/07/13 08:10:41;;;;;;;;;;;;;;;;;;2072118;28;19905;-69
2023/07/13 08:12:01;;;;;;;;;;;;;;;;;;2061554;28;20298;-69
2023/07/13 08:13:22;;;;;;;;;;;;;;;;;;2060866;28;19989;-69
2023/07/13 08:14:43;;;;;;;;;;;;;;;;;;2063357;28;20277;-69
2023/07/13 08:16:03;;;;;;;;;;;;;;;;;;2063383;28;19906;-69
2023/07/13 08:17:24;;;;;;;;;;;;;;;;;;2056149;28;19910;-69
2023/07/13 08:18:45;;;;;;;;;;;;;;;;;;2060126;28;19933;-67
2023/07/13 08:20:06;;;;;;;;;;;;;;;;;;2064344;28;20251;-67
2023/07/13 08:21:26;;;;;;;;;;;;;;;;;;2062652;28;20284;-69
2023/07/13 08:22:47;;;;;;;;;;;;;;;;;;2060651;28;19916;-69
2023/07/13 08:24:08;;;;;;;;;;;;;;;;;;2056104;28;19922;-69
2023/07/13 08:25:28;;;;;;;;;;;;;;;;;;2056356;28;19906;-69
2023/07/13 08:26:49;;;;;;;;;;;;;;;;;;2060974;28;19906;-69
2023/07/13 08:28:10;;;;;;;;;;;;;;;;;;2054602;28;19914;-69
2023/07/13 08:29:31;;;;;;;;;;;;;;;;;;2062019;28;19914;-69
2023/07/13 08:30:52;;;;;;;;;;;;;;;;;;2064562;28;19964;-69
2023/07/13 08:32:13;;;;;;;;;;;;;;;;;;2052075;28;19957;-69
2023/07/13 08:33:34;;;;;;;;;;;;;;;;;;2053556;28;19914;-69
2023/07/13 08:34:55;;;;;;;;;;;;;;;;;;2061606;28;19909;-69
2023/07/13 08:36:15;;;;;;;;;;;;;;;;;;2063518;28;19906;-69
2023/07/13 08:37:36;;;;;;;;;;;;;;;;;;2063021;28;20269;-69
2023/07/13 08:38:57;;;;;;;;;;;;;;;;;;2062311;28;19910;-69
2023/07/13 08:40:17;;;;;;;;;;;;;;;;;;2055646;28;19914;-69
2023/07/13 08:41:38;;;;;;;;;;;;;;;;;;2059062;28;19906;-69
2023/07/13 08:42:59;;;;;;;;;;;;;;;;;;2060474;28;19972;-69
2023/07/13 08:44:20;;;;;;;;;;;;;;;;;;2055940;28;19910;-69
2023/07/13 08:45:40;;;;;;;;;;;;;;;;;;2063051;28;19905;-69
2023/07/13 08:47:01;;;;;;;;;;;;;;;;;;2058011;28;19917;-69
2023/07/13 08:48:22;;;;;;;;;;;;;;;;;;2050766;28;19986;-69
2023/07/13 08:49:43;;;;;;;;;;;;;;;;;;2053418;28;19914;-69
2023/07/13 08:51:03;;;;;;;;;;;;;;;;;;2056222;28;19906;-68
2023/07/13 08:52:24;;;;;;;;;;;;;;;;;;2058408;28;20369;-69
2023/07/13 08:53:45;;;;;;;;;;;;;;;;;;2062450;28;19906;-69
2023/07/13 08:55:05;;;;;;;;;;;;;;;;;;2062594;28;20353;-71
2023/07/13 08:56:26;;;;;;;;;;;;;;;;;;2062758;28;19914;-69
2023/07/13 08:57:47;;;;;;;;;;;;;;;;;;2061211;28;19989;-69
2023/07/13 08:59:08;;;;;;;;;;;;;;;;;;2058779;28;19994;-69
2023/07/13 09:00:29;;;;;;;;;;;;;;;;;;2067196;28;19905;-69
2023/07/13 09:01:50;;;;;;;;;;;;;;;;;;2062420;28;19906;-69
2023/07/13 09:03:11;;;;;;;;;;;;;;;;;;2059029;28;19906;-70
2023/07/13 09:04:33;;;;;;;;;;;;;;;;;;2064152;28;19910;-69
2023/07/13 09:05:54;;;;;;;;;;;;;;;;;;2063971;28;19910;-69
2023/07/13 09:07:15;;;;;;;;;;;;;;;;;;2058568;28;19906;-69
2023/07/13 09:08:35;;;;;;;;;;;;;;;;;;2058651;28;19906;-69
2023/07/13 09:09:56;;;;;;;;;;;;;;;;;;2046614;29;20326;-69
2023/07/13 09:11:17;;;;;;;;;;;;;;;;;;2046644;28;19914;-69